sensor_id;sensor_type;location;lat;lon;timestamp;temperature;humidity
75321;DHT22;63920;52.130;5.584;2022-12-20T00:00:01;10.10;96.90
75321;DHT22;63920;52.130;5.584;2022-12-20T00:02:27;10.10;96.80
75321;DHT22;63920;52.130;5.584;2022-12-20T00:04:52;10.10;96.90
75321;DHT22;63920;52.130;5.584;2022-12-20T00:07:18;10.20;96.60
75321;DHT22;63920;52.130;5.584;2022-12-20T00:09:43;10.20;96.70
75321;DHT22;63920;52.130;5.584;2022-12-20T00:12:09;10.20;96.50
75321;DHT22;63920;52.130;5.584;2022-12-20T00:14:35;10.20;96.50
75321;DHT22;63920;52.130;5.584;2022-12-20T00:17:00;10.10;96.50
75321;DHT22;63920;52.130;5.584;2022-12-20T00:19:26;10.20;96.40
75321;DHT22;63920;52.130;5.584;2022-12-20T00:21:51;10.30;96.50
75321;DHT22;63920;52.130;5.584;2022-12-20T00:24:17;10.20;96.50
75321;DHT22;63920;52.130;5.584;2022-12-20T00:26:42;10.30;96.20
75321;DHT22;63920;52.130;5.584;2022-12-20T00:29:08;10.20;96.50
75321;DHT22;63920;52.130;5.584;2022-12-20T00:31:34;10.20;96.70
75321;DHT22;63920;52.130;5.584;2022-12-20T00:34:00;10.30;96.30
75321;DHT22;63920;52.130;5.584;2022-12-20T00:36:27;10.30;96.30
75321;DHT22;63920;52.130;5.584;2022-12-20T00:38:55;10.50;96.30
75321;DHT22;63920;52.130;5.584;2022-12-20T00:41:23;10.30;96.20
75321;DHT22;63920;52.130;5.584;2022-12-20T00:43:49;10.30;96.20
75321;DHT22;63920;52.130;5.584;2022-12-20T00:46:16;10.30;96.20
75321;DHT22;63920;52.130;5.584;2022-12-20T00:48:43;10.40;96.10
75321;DHT22;63920;52.130;5.584;2022-12-20T00:51:12;10.40;96.00
75321;DHT22;63920;52.130;5.584;2022-12-20T00:53:38;10.30;96.10
75321;DHT22;63920;52.130;5.584;2022-12-20T00:56:05;10.30;96.10
75321;DHT22;63920;52.130;5.584;2022-12-20T00:58:32;10.40;96.10
75321;DHT22;63920;52.130;5.584;2022-12-20T01:00:58;10.30;96.10
75321;DHT22;63920;52.130;5.584;2022-12-20T01:03:24;10.40;96.00
75321;DHT22;63920;52.130;5.584;2022-12-20T01:06:09;10.40;95.90
75321;DHT22;63920;52.130;5.584;2022-12-20T01:08:34;10.50;96.00
75321;DHT22;63920;52.130;5.584;2022-12-20T01:11:17;10.50;95.80
75321;DHT22;63920;52.130;5.584;2022-12-20T01:13:45;10.40;96.00
75321;DHT22;63920;52.130;5.584;2022-12-20T01:16:15;10.40;95.90
75321;DHT22;63920;52.130;5.584;2022-12-20T01:18:41;10.40;96.00
75321;DHT22;63920;52.130;5.584;2022-12-20T01:21:09;10.40;96.00
75321;DHT22;63920;52.130;5.584;2022-12-20T01:23:35;10.40;96.10
75321;DHT22;63920;52.130;5.584;2022-12-20T01:26:03;10.50;96.40
75321;DHT22;63920;52.130;5.584;2022-12-20T01:28:30;10.40;96.20
75321;DHT22;63920;52.130;5.584;2022-12-20T01:30:56;10.40;96.70
75321;DHT22;63920;52.130;5.584;2022-12-20T01:33:22;10.40;96.90
75321;DHT22;63920;52.130;5.584;2022-12-20T01:35:59;10.40;97.20
75321;DHT22;63920;52.130;5.584;2022-12-20T01:38:26;10.30;97.60
75321;DHT22;63920;52.130;5.584;2022-12-20T01:40:52;10.30;97.90
75321;DHT22;63920;52.130;5.584;2022-12-20T01:43:18;10.20;98.00
75321;DHT22;63920;52.130;5.584;2022-12-20T01:45:44;10.20;98.10
75321;DHT22;63920;52.130;5.584;2022-12-20T01:48:13;10.20;98.50
75321;DHT22;63920;52.130;5.584;2022-12-20T01:50:41;10.10;99.00
75321;DHT22;63920;52.130;5.584;2022-12-20T01:53:06;10.00;99.20
75321;DHT22;63920;52.130;5.584;2022-12-20T01:55:32;9.90;99.80
75321;DHT22;63920;52.130;5.584;2022-12-20T01:58:02;9.90;99.90
75321;DHT22;63920;52.130;5.584;2022-12-20T02:00:29;9.90;99.90
75321;DHT22;63920;52.130;5.584;2022-12-20T02:02:58;9.80;99.90
75321;DHT22;63920;52.130;5.584;2022-12-20T02:05:25;9.80;99.90
75321;DHT22;63920;52.130;5.584;2022-12-20T02:07:53;9.70;99.90
75321;DHT22;63920;52.130;5.584;2022-12-20T02:10:22;9.70;99.90
75321;DHT22;63920;52.130;5.584;2022-12-20T02:12:50;9.70;99.90
75321;DHT22;63920;52.130;5.584;2022-12-20T02:18:15;9.70;99.90
75321;DHT22;63920;52.130;5.584;2022-12-20T02:34:32;9.70;99.90
75321;DHT22;63920;52.130;5.584;2022-12-20T02:36:58;9.70;99.90
75321;DHT22;63920;52.130;5.584;2022-12-20T02:39:26;9.60;99.90
75321;DHT22;63920;52.130;5.584;2022-12-20T02:42:00;9.60;99.90
75321;DHT22;63920;52.130;5.584;2022-12-20T02:44:29;9.60;99.90
75321;DHT22;63920;52.130;5.584;2022-12-20T02:47:32;9.60;99.90
75321;DHT22;63920;52.130;5.584;2022-12-20T02:50:00;9.60;99.90
75321;DHT22;63920;52.130;5.584;2022-12-20T02:52:28;9.70;99.90
75321;DHT22;63920;52.130;5.584;2022-12-20T02:54:55;9.70;99.90
75321;DHT22;63920;52.130;5.584;2022-12-20T03:00:15;9.60;99.90
75321;DHT22;63920;52.130;5.584;2022-12-20T03:02:43;9.70;99.90
75321;DHT22;63920;52.130;5.584;2022-12-20T03:05:28;9.50;99.90
75321;DHT22;63920;52.130;5.584;2022-12-20T03:07:54;9.60;99.90
75321;DHT22;63920;52.130;5.584;2022-12-20T03:10:20;9.60;99.90
75321;DHT22;63920;52.130;5.584;2022-12-20T03:12:46;9.60;99.90
75321;DHT22;63920;52.130;5.584;2022-12-20T03:15:12;9.50;99.90
75321;DHT22;63920;52.130;5.584;2022-12-20T03:17:38;9.70;99.90
75321;DHT22;63920;52.130;5.584;2022-12-20T03:20:04;9.70;99.90
75321;DHT22;63920;52.130;5.584;2022-12-20T03:22:32;9.70;99.90
75321;DHT22;63920;52.130;5.584;2022-12-20T03:24:58;9.70;99.90
75321;DHT22;63920;52.130;5.584;2022-12-20T03:27:24;9.60;99.90
75321;DHT22;63920;52.130;5.584;2022-12-20T03:29:52;9.70;99.90
75321;DHT22;63920;52.130;5.584;2022-12-20T03:32:18;9.60;99.90
75321;DHT22;63920;52.130;5.584;2022-12-20T03:34:43;9.60;99.90
75321;DHT22;63920;52.130;5.584;2022-12-20T03:37:09;9.70;99.90
75321;DHT22;63920;52.130;5.584;2022-12-20T03:39:35;9.70;99.90
75321;DHT22;63920;52.130;5.584;2022-12-20T03:42:00;9.70;99.90
75321;DHT22;63920;52.130;5.584;2022-12-20T03:44:26;9.70;99.90
75321;DHT22;63920;52.130;5.584;2022-12-20T03:46:51;9.80;99.90
75321;DHT22;63920;52.130;5.584;2022-12-20T03:49:17;9.70;99.90
75321;DHT22;63920;52.130;5.584;2022-12-20T03:51:43;9.80;99.90
75321;DHT22;63920;52.130;5.584;2022-12-20T03:54:08;9.80;99.90
75321;DHT22;63920;52.130;5.584;2022-12-20T03:56:34;9.80;99.90
75321;DHT22;63920;52.130;5.584;2022-12-20T03:59:00;9.90;99.90
75321;DHT22;63920;52.130;5.584;2022-12-20T04:01:27;10.00;99.90
75321;DHT22;63920;52.130;5.584;2022-12-20T04:03:53;9.90;99.90
75321;DHT22;63920;52.130;5.584;2022-12-20T04:06:20;9.90;99.90
75321;DHT22;63920;52.130;5.584;2022-12-20T04:08:46;10.00;99.90
75321;DHT22;63920;52.130;5.584;2022-12-20T04:11:12;10.10;99.90
75321;DHT22;63920;52.130;5.584;2022-12-20T04:13:51;10.00;99.90
75321;DHT22;63920;52.130;5.584;2022-12-20T04:16:21;10.10;99.90
75321;DHT22;63920;52.130;5.584;2022-12-20T04:18:47;10.10;99.90
75321;DHT22;63920;52.130;5.584;2022-12-20T04:21:13;10.00;99.90
75321;DHT22;63920;52.130;5.584;2022-12-20T04:23:40;10.20;99.90
75321;DHT22;63920;52.130;5.584;2022-12-20T04:26:07;10.20;99.90
75321;DHT22;63920;52.130;5.584;2022-12-20T04:28:33;10.30;99.90
75321;DHT22;63920;52.130;5.584;2022-12-20T04:30:59;10.20;99.90
75321;DHT22;63920;52.130;5.584;2022-12-20T04:33:25;10.10;99.90
75321;DHT22;63920;52.130;5.584;2022-12-20T04:35:51;10.20;99.90
75321;DHT22;63920;52.130;5.584;2022-12-20T04:38:18;10.20;99.90
75321;DHT22;63920;52.130;5.584;2022-12-20T04:40:44;10.30;99.90
75321;DHT22;63920;52.130;5.584;2022-12-20T04:43:09;10.30;99.90
75321;DHT22;63920;52.130;5.584;2022-12-20T04:45:35;10.40;99.90
75321;DHT22;63920;52.130;5.584;2022-12-20T04:48:01;10.40;99.80
75321;DHT22;63920;52.130;5.584;2022-12-20T04:50:27;10.50;99.90
75321;DHT22;63920;52.130;5.584;2022-12-20T04:52:52;10.50;99.70
75321;DHT22;63920;52.130;5.584;2022-12-20T04:55:38;10.50;99.60
75321;DHT22;63920;52.130;5.584;2022-12-20T04:58:04;10.40;99.60
75321;DHT22;63920;52.130;5.584;2022-12-20T05:00:30;10.40;99.90
75321;DHT22;63920;52.130;5.584;2022-12-20T05:02:56;10.50;99.90
75321;DHT22;63920;52.130;5.584;2022-12-20T05:05:22;10.50;99.80
75321;DHT22;63920;52.130;5.584;2022-12-20T05:07:48;10.60;99.90
75321;DHT22;63920;52.130;5.584;2022-12-20T05:10:14;10.50;99.90
75321;DHT22;63920;52.130;5.584;2022-12-20T05:12:39;10.40;99.90
75321;DHT22;63920;52.130;5.584;2022-12-20T05:15:05;10.30;99.90
75321;DHT22;63920;52.130;5.584;2022-12-20T05:17:32;10.20;99.90
75321;DHT22;63920;52.130;5.584;2022-12-20T05:19:58;10.20;99.90
75321;DHT22;63920;52.130;5.584;2022-12-20T05:22:23;10.20;99.90
75321;DHT22;63920;52.130;5.584;2022-12-20T05:25:09;10.20;99.90
75321;DHT22;63920;52.130;5.584;2022-12-20T05:27:53;10.20;99.90
75321;DHT22;63920;52.130;5.584;2022-12-20T05:30:19;10.20;99.90
75321;DHT22;63920;52.130;5.584;2022-12-20T05:32:45;10.20;99.90
75321;DHT22;63920;52.130;5.584;2022-12-20T05:35:10;10.20;99.90
75321;DHT22;63920;52.130;5.584;2022-12-20T05:37:36;10.20;99.90
75321;DHT22;63920;52.130;5.584;2022-12-20T05:40:02;10.20;99.90
75321;DHT22;63920;52.130;5.584;2022-12-20T05:42:28;10.20;99.90
75321;DHT22;63920;52.130;5.584;2022-12-20T05:44:54;10.10;99.90
75321;DHT22;63920;52.130;5.584;2022-12-20T05:47:20;10.20;99.90
75321;DHT22;63920;52.130;5.584;2022-12-20T05:49:45;10.20;99.90
75321;DHT22;63920;52.130;5.584;2022-12-20T05:52:11;10.10;99.90
75321;DHT22;63920;52.130;5.584;2022-12-20T05:54:36;10.20;99.90
75321;DHT22;63920;52.130;5.584;2022-12-20T05:57:02;10.20;99.90
75321;DHT22;63920;52.130;5.584;2022-12-20T05:59:28;10.30;99.90
75321;DHT22;63920;52.130;5.584;2022-12-20T06:01:53;10.40;99.90
75321;DHT22;63920;52.130;5.584;2022-12-20T06:04:19;10.20;99.90
75321;DHT22;63920;52.130;5.584;2022-12-20T06:06:45;10.20;99.90
75321;DHT22;63920;52.130;5.584;2022-12-20T06:09:10;10.10;99.90
75321;DHT22;63920;52.130;5.584;2022-12-20T06:11:36;10.10;99.90
75321;DHT22;63920;52.130;5.584;2022-12-20T06:14:02;10.20;99.90
75321;DHT22;63920;52.130;5.584;2022-12-20T06:16:28;10.20;99.90
75321;DHT22;63920;52.130;5.584;2022-12-20T06:18:54;10.20;99.90
75321;DHT22;63920;52.130;5.584;2022-12-20T06:21:20;10.20;99.90
75321;DHT22;63920;52.130;5.584;2022-12-20T06:23:46;10.30;99.90
75321;DHT22;63920;52.130;5.584;2022-12-20T06:26:11;10.40;99.90
75321;DHT22;63920;52.130;5.584;2022-12-20T06:28:37;10.30;99.90
75321;DHT22;63920;52.130;5.584;2022-12-20T06:31:09;10.40;99.90
75321;DHT22;63920;52.130;5.584;2022-12-20T06:33:35;10.40;99.90
75321;DHT22;63920;52.130;5.584;2022-12-20T06:36:01;10.50;99.90
75321;DHT22;63920;52.130;5.584;2022-12-20T06:38:27;10.40;99.90
75321;DHT22;63920;52.130;5.584;2022-12-20T06:40:53;10.40;99.90
75321;DHT22;63920;52.130;5.584;2022-12-20T06:43:19;10.40;99.90
75321;DHT22;63920;52.130;5.584;2022-12-20T06:45:44;10.40;99.90
75321;DHT22;63920;52.130;5.584;2022-12-20T06:48:10;10.40;99.90
75321;DHT22;63920;52.130;5.584;2022-12-20T06:50:37;10.30;99.90
75321;DHT22;63920;52.130;5.584;2022-12-20T06:53:03;10.40;99.90
75321;DHT22;63920;52.130;5.584;2022-12-20T06:55:29;10.50;99.90
75321;DHT22;63920;52.130;5.584;2022-12-20T06:57:55;10.50;99.90
75321;DHT22;63920;52.130;5.584;2022-12-20T07:00:21;10.50;99.90
75321;DHT22;63920;52.130;5.584;2022-12-20T07:02:47;10.60;99.90
75321;DHT22;63920;52.130;5.584;2022-12-20T07:05:13;10.60;99.90
75321;DHT22;63920;52.130;5.584;2022-12-20T07:07:38;10.60;99.90
75321;DHT22;63920;52.130;5.584;2022-12-20T07:10:05;10.70;99.90
75321;DHT22;63920;52.130;5.584;2022-12-20T07:12:31;10.60;99.90
75321;DHT22;63920;52.130;5.584;2022-12-20T07:14:58;10.70;99.90
75321;DHT22;63920;52.130;5.584;2022-12-20T07:17:24;10.70;99.70
75321;DHT22;63920;52.130;5.584;2022-12-20T07:19:49;10.70;99.50
75321;DHT22;63920;52.130;5.584;2022-12-20T07:22:15;10.70;99.40
75321;DHT22;63920;52.130;5.584;2022-12-20T07:24:40;10.70;99.30
75321;DHT22;63920;52.130;5.584;2022-12-20T07:27:06;10.80;99.20
75321;DHT22;63920;52.130;5.584;2022-12-20T07:29:32;10.90;99.10
75321;DHT22;63920;52.130;5.584;2022-12-20T07:31:58;10.90;99.00
75321;DHT22;63920;52.130;5.584;2022-12-20T07:34:23;10.80;98.90
75321;DHT22;63920;52.130;5.584;2022-12-20T07:36:49;10.80;98.90
75321;DHT22;63920;52.130;5.584;2022-12-20T07:39:15;11.00;98.30
75321;DHT22;63920;52.130;5.584;2022-12-20T07:41:40;10.90;98.40
75321;DHT22;63920;52.130;5.584;2022-12-20T07:44:06;10.90;98.40
75321;DHT22;63920;52.130;5.584;2022-12-20T07:46:32;10.90;98.40
75321;DHT22;63920;52.130;5.584;2022-12-20T07:48:58;10.90;98.50
75321;DHT22;63920;52.130;5.584;2022-12-20T07:51:30;10.90;98.40
75321;DHT22;63920;52.130;5.584;2022-12-20T07:54:10;10.90;98.70
75321;DHT22;63920;52.130;5.584;2022-12-20T07:56:39;10.80;98.60
75321;DHT22;63920;52.130;5.584;2022-12-20T07:59:07;10.80;98.60
75321;DHT22;63920;52.130;5.584;2022-12-20T08:01:33;10.90;98.70
75321;DHT22;63920;52.130;5.584;2022-12-20T08:04:05;10.90;98.50
75321;DHT22;63920;52.130;5.584;2022-12-20T08:06:36;10.90;98.70
75321;DHT22;63920;52.130;5.584;2022-12-20T08:09:05;10.80;98.80
75321;DHT22;63920;52.130;5.584;2022-12-20T08:11:32;10.80;98.70
75321;DHT22;63920;52.130;5.584;2022-12-20T08:13:59;10.80;98.60
75321;DHT22;63920;52.130;5.584;2022-12-20T08:16:25;10.90;98.40
75321;DHT22;63920;52.130;5.584;2022-12-20T08:18:51;10.80;98.50
75321;DHT22;63920;52.130;5.584;2022-12-20T08:21:16;10.90;98.50
75321;DHT22;63920;52.130;5.584;2022-12-20T08:23:43;10.90;98.40
75321;DHT22;63920;52.130;5.584;2022-12-20T08:26:09;10.90;98.40
75321;DHT22;63920;52.130;5.584;2022-12-20T08:28:34;10.90;98.40
75321;DHT22;63920;52.130;5.584;2022-12-20T08:31:02;10.90;98.30
75321;DHT22;63920;52.130;5.584;2022-12-20T08:33:29;10.90;98.30
75321;DHT22;63920;52.130;5.584;2022-12-20T08:36:00;10.90;98.40
75321;DHT22;63920;52.130;5.584;2022-12-20T08:38:27;10.90;98.40
75321;DHT22;63920;52.130;5.584;2022-12-20T08:40:53;10.90;98.30
75321;DHT22;63920;52.130;5.584;2022-12-20T08:43:19;10.90;98.30
75321;DHT22;63920;52.130;5.584;2022-12-20T08:45:50;10.80;98.40
75321;DHT22;63920;52.130;5.584;2022-12-20T08:48:15;10.90;98.20
75321;DHT22;63920;52.130;5.584;2022-12-20T08:50:41;10.90;98.30
75321;DHT22;63920;52.130;5.584;2022-12-20T08:53:07;10.80;98.30
75321;DHT22;63920;52.130;5.584;2022-12-20T08:55:33;10.80;98.60
75321;DHT22;63920;52.130;5.584;2022-12-20T08:57:58;10.70;98.40
75321;DHT22;63920;52.130;5.584;2022-12-20T09:00:24;10.80;98.60
75321;DHT22;63920;52.130;5.584;2022-12-20T09:02:50;10.70;98.30
75321;DHT22;63920;52.130;5.584;2022-12-20T09:05:19;10.80;98.80
75321;DHT22;63920;52.130;5.584;2022-12-20T09:07:44;10.70;99.20
75321;DHT22;63920;52.130;5.584;2022-12-20T09:10:10;10.70;99.50
75321;DHT22;63920;52.130;5.584;2022-12-20T09:12:37;10.60;99.80
75321;DHT22;63920;52.130;5.584;2022-12-20T09:15:04;10.60;99.90
75321;DHT22;63920;52.130;5.584;2022-12-20T09:17:30;10.50;99.90
75321;DHT22;63920;52.130;5.584;2022-12-20T09:19:55;10.50;99.90
75321;DHT22;63920;52.130;5.584;2022-12-20T09:22:21;10.50;99.90
75321;DHT22;63920;52.130;5.584;2022-12-20T09:24:46;10.40;99.90
75321;DHT22;63920;52.130;5.584;2022-12-20T09:27:13;10.40;99.90
75321;DHT22;63920;52.130;5.584;2022-12-20T09:29:39;10.40;99.90
75321;DHT22;63920;52.130;5.584;2022-12-20T09:32:05;10.30;99.90
75321;DHT22;63920;52.130;5.584;2022-12-20T09:34:31;10.30;99.90
75321;DHT22;63920;52.130;5.584;2022-12-20T09:36:57;10.30;99.90
75321;DHT22;63920;52.130;5.584;2022-12-20T09:39:22;10.20;99.90
75321;DHT22;63920;52.130;5.584;2022-12-20T09:41:48;10.20;99.90
75321;DHT22;63920;52.130;5.584;2022-12-20T09:44:33;10.20;99.90
75321;DHT22;63920;52.130;5.584;2022-12-20T09:47:03;10.10;99.90
75321;DHT22;63920;52.130;5.584;2022-12-20T09:49:33;10.10;99.90
75321;DHT22;63920;52.130;5.584;2022-12-20T10:00:23;10.10;99.90
75321;DHT22;63920;52.130;5.584;2022-12-20T10:02:49;10.00;99.90
75321;DHT22;63920;52.130;5.584;2022-12-20T10:05:19;10.00;99.90
75321;DHT22;63920;52.130;5.584;2022-12-20T10:08:21;10.00;99.90
75321;DHT22;63920;52.130;5.584;2022-12-20T10:10:55;10.00;99.90
75321;DHT22;63920;52.130;5.584;2022-12-20T10:13:41;10.00;99.90
75321;DHT22;63920;52.130;5.584;2022-12-20T10:16:30;10.00;99.90
75321;DHT22;63920;52.130;5.584;2022-12-20T10:21:52;10.00;99.90
75321;DHT22;63920;52.130;5.584;2022-12-20T10:24:29;10.00;99.90
75321;DHT22;63920;52.130;5.584;2022-12-20T10:26:57;10.00;99.90
75321;DHT22;63920;52.130;5.584;2022-12-20T10:29:26;10.00;99.90
75321;DHT22;63920;52.130;5.584;2022-12-20T10:31:54;10.00;99.90
75321;DHT22;63920;52.130;5.584;2022-12-20T10:34:23;9.90;99.90
75321;DHT22;63920;52.130;5.584;2022-12-20T10:37:12;10.00;99.90
75321;DHT22;63920;52.130;5.584;2022-12-20T10:39:49;10.00;99.90
75321;DHT22;63920;52.130;5.584;2022-12-20T10:42:36;9.90;99.90
75321;DHT22;63920;52.130;5.584;2022-12-20T10:47:42;10.00;99.90
75321;DHT22;63920;52.130;5.584;2022-12-20T10:50:13;10.00;99.90
75321;DHT22;63920;52.130;5.584;2022-12-20T10:52:41;10.00;99.90
75321;DHT22;63920;52.130;5.584;2022-12-20T10:55:38;10.00;99.90
75321;DHT22;63920;52.130;5.584;2022-12-20T11:03:28;10.00;99.90
75321;DHT22;63920;52.130;5.584;2022-12-20T11:06:02;10.00;99.90
75321;DHT22;63920;52.130;5.584;2022-12-20T11:08:30;10.00;99.90
75321;DHT22;63920;52.130;5.584;2022-12-20T11:11:20;10.00;99.90
75321;DHT22;63920;52.130;5.584;2022-12-20T11:13:47;10.00;99.90
75321;DHT22;63920;52.130;5.584;2022-12-20T11:19:43;10.00;99.90
75321;DHT22;63920;52.130;5.584;2022-12-20T11:22:29;10.10;99.90
75321;DHT22;63920;52.130;5.584;2022-12-20T11:25:04;10.10;99.90
75321;DHT22;63920;52.130;5.584;2022-12-20T11:30:19;10.00;99.90
75321;DHT22;63920;52.130;5.584;2022-12-20T11:35:46;10.10;99.90
75321;DHT22;63920;52.130;5.584;2022-12-20T11:38:41;10.10;99.90
75321;DHT22;63920;52.130;5.584;2022-12-20T11:41:20;10.10;99.90
75321;DHT22;63920;52.130;5.584;2022-12-20T11:54:37;10.10;99.90
75321;DHT22;63920;52.130;5.584;2022-12-20T11:57:36;10.20;99.90
75321;DHT22;63920;52.130;5.584;2022-12-20T12:00:04;10.20;99.90
75321;DHT22;63920;52.130;5.584;2022-12-20T12:02:42;10.20;99.90
75321;DHT22;63920;52.130;5.584;2022-12-20T12:05:45;10.20;99.90
75321;DHT22;63920;52.130;5.584;2022-12-20T12:08:21;10.20;99.90
75321;DHT22;63920;52.130;5.584;2022-12-20T12:11:05;10.20;99.90
75321;DHT22;63920;52.130;5.584;2022-12-20T12:13:35;10.20;99.90
75321;DHT22;63920;52.130;5.584;2022-12-20T12:16:09;10.20;99.90
75321;DHT22;63920;52.130;5.584;2022-12-20T12:18:37;10.20;99.90
75321;DHT22;63920;52.130;5.584;2022-12-20T12:26:21;10.20;99.90
75321;DHT22;63920;52.130;5.584;2022-12-20T12:28:53;10.20;99.90
75321;DHT22;63920;52.130;5.584;2022-12-20T12:31:25;10.20;99.90
75321;DHT22;63920;52.130;5.584;2022-12-20T12:37:19;10.30;99.90
75321;DHT22;63920;52.130;5.584;2022-12-20T12:45:20;10.30;99.90
75321;DHT22;63920;52.130;5.584;2022-12-20T12:47:50;10.30;99.90
75321;DHT22;63920;52.130;5.584;2022-12-20T12:50:35;10.30;99.90
75321;DHT22;63920;52.130;5.584;2022-12-20T12:53:17;10.30;99.90
75321;DHT22;63920;52.130;5.584;2022-12-20T12:55:47;10.30;99.90
75321;DHT22;63920;52.130;5.584;2022-12-20T13:00:59;10.30;99.90
75321;DHT22;63920;52.130;5.584;2022-12-20T13:11:40;10.30;99.90
75321;DHT22;63920;52.130;5.584;2022-12-20T13:21:55;10.30;99.90
75321;DHT22;63920;52.130;5.584;2022-12-20T13:40:42;10.30;99.90
75321;DHT22;63920;52.130;5.584;2022-12-20T13:43:34;10.30;99.90
75321;DHT22;63920;52.130;5.584;2022-12-20T13:48:49;10.30;99.90
75321;DHT22;63920;52.130;5.584;2022-12-20T13:51:24;10.30;99.90
75321;DHT22;63920;52.130;5.584;2022-12-20T13:53:59;10.30;99.90
75321;DHT22;63920;52.130;5.584;2022-12-20T13:58:52;10.30;99.90
75321;DHT22;63920;52.130;5.584;2022-12-20T14:01:23;10.30;99.90
75321;DHT22;63920;52.130;5.584;2022-12-20T14:03:50;10.30;99.90
75321;DHT22;63920;52.130;5.584;2022-12-20T14:06:18;10.30;99.90
75321;DHT22;63920;52.130;5.584;2022-12-20T14:08:50;10.30;99.90
75321;DHT22;63920;52.130;5.584;2022-12-20T14:11:21;10.30;99.90
75321;DHT22;63920;52.130;5.584;2022-12-20T14:13:51;10.30;99.90
75321;DHT22;63920;52.130;5.584;2022-12-20T14:16:19;10.30;99.90
75321;DHT22;63920;52.130;5.584;2022-12-20T14:21:23;10.30;99.90
75321;DHT22;63920;52.130;5.584;2022-12-20T14:23:51;10.30;99.90
75321;DHT22;63920;52.130;5.584;2022-12-20T14:26:26;10.30;99.90
75321;DHT22;63920;52.130;5.584;2022-12-20T14:28:57;10.30;99.90
75321;DHT22;63920;52.130;5.584;2022-12-20T14:31:39;10.30;99.90
75321;DHT22;63920;52.130;5.584;2022-12-20T14:34:11;10.30;99.90
75321;DHT22;63920;52.130;5.584;2022-12-20T14:36:43;10.30;99.90
75321;DHT22;63920;52.130;5.584;2022-12-20T14:39:23;10.40;99.90
75321;DHT22;63920;52.130;5.584;2022-12-20T14:42:01;10.40;99.90
75321;DHT22;63920;52.130;5.584;2022-12-20T14:44:29;10.40;99.90
75321;DHT22;63920;52.130;5.584;2022-12-20T14:47:00;10.40;99.90
75321;DHT22;63920;52.130;5.584;2022-12-20T14:49:34;10.40;99.90
75321;DHT22;63920;52.130;5.584;2022-12-20T14:52:34;10.40;99.90
75321;DHT22;63920;52.130;5.584;2022-12-20T14:55:08;10.40;99.90
75321;DHT22;63920;52.130;5.584;2022-12-20T14:57:49;10.40;99.90
75321;DHT22;63920;52.130;5.584;2022-12-20T15:08:17;10.30;99.90
75321;DHT22;63920;52.130;5.584;2022-12-20T15:13:30;10.30;99.90
75321;DHT22;63920;52.130;5.584;2022-12-20T15:16:01;10.30;99.90
75321;DHT22;63920;52.130;5.584;2022-12-20T15:18:28;10.30;99.90
75321;DHT22;63920;52.130;5.584;2022-12-20T15:21:00;10.30;99.90
75321;DHT22;63920;52.130;5.584;2022-12-20T15:23:26;10.30;99.90
75321;DHT22;63920;52.130;5.584;2022-12-20T15:25:52;10.30;99.90
75321;DHT22;63920;52.130;5.584;2022-12-20T15:28:20;10.20;99.90
75321;DHT22;63920;52.130;5.584;2022-12-20T15:30:47;10.20;99.90
75321;DHT22;63920;52.130;5.584;2022-12-20T15:33:25;10.20;99.90
75321;DHT22;63920;52.130;5.584;2022-12-20T15:35:52;10.20;99.90
75321;DHT22;63920;52.130;5.584;2022-12-20T15:38:20;10.30;99.90
75321;DHT22;63920;52.130;5.584;2022-12-20T15:40:48;10.20;99.90
75321;DHT22;63920;52.130;5.584;2022-12-20T15:43:17;10.20;99.90
75321;DHT22;63920;52.130;5.584;2022-12-20T15:45:44;10.30;99.90
75321;DHT22;63920;52.130;5.584;2022-12-20T15:48:13;10.30;99.90
75321;DHT22;63920;52.130;5.584;2022-12-20T15:50:43;10.30;99.90
75321;DHT22;63920;52.130;5.584;2022-12-20T15:53:14;10.30;99.90
75321;DHT22;63920;52.130;5.584;2022-12-20T15:55:40;10.30;99.90
75321;DHT22;63920;52.130;5.584;2022-12-20T15:58:05;10.30;99.90
75321;DHT22;63920;52.130;5.584;2022-12-20T16:00:31;10.30;99.90
75321;DHT22;63920;52.130;5.584;2022-12-20T16:02:57;10.30;99.90
75321;DHT22;63920;52.130;5.584;2022-12-20T16:05:23;10.20;99.90
75321;DHT22;63920;52.130;5.584;2022-12-20T16:07:49;10.20;99.90
75321;DHT22;63920;52.130;5.584;2022-12-20T16:10:14;10.20;99.90
75321;DHT22;63920;52.130;5.584;2022-12-20T16:12:41;10.20;99.90
75321;DHT22;63920;52.130;5.584;2022-12-20T16:15:19;10.20;99.90
75321;DHT22;63920;52.130;5.584;2022-12-20T16:17:45;10.20;99.90
75321;DHT22;63920;52.130;5.584;2022-12-20T16:20:11;10.20;99.90
75321;DHT22;63920;52.130;5.584;2022-12-20T16:22:36;10.20;99.90
75321;DHT22;63920;52.130;5.584;2022-12-20T16:25:02;10.20;99.90
75321;DHT22;63920;52.130;5.584;2022-12-20T16:27:28;10.20;99.90
75321;DHT22;63920;52.130;5.584;2022-12-20T16:29:54;10.20;99.90
75321;DHT22;63920;52.130;5.584;2022-12-20T16:32:20;10.20;99.90
75321;DHT22;63920;52.130;5.584;2022-12-20T16:34:47;10.20;99.90
75321;DHT22;63920;52.130;5.584;2022-12-20T16:37:13;10.20;99.90
75321;DHT22;63920;52.130;5.584;2022-12-20T16:39:40;10.20;99.90
75321;DHT22;63920;52.130;5.584;2022-12-20T16:42:14;10.20;99.90
75321;DHT22;63920;52.130;5.584;2022-12-20T16:44:41;10.20;99.90
75321;DHT22;63920;52.130;5.584;2022-12-20T16:47:09;10.20;99.90
75321;DHT22;63920;52.130;5.584;2022-12-20T16:49:35;10.20;99.90
75321;DHT22;63920;52.130;5.584;2022-12-20T16:52:02;10.20;99.90
75321;DHT22;63920;52.130;5.584;2022-12-20T16:54:28;10.20;99.90
75321;DHT22;63920;52.130;5.584;2022-12-20T16:56:54;10.20;99.90
75321;DHT22;63920;52.130;5.584;2022-12-20T16:59:22;10.20;99.90
75321;DHT22;63920;52.130;5.584;2022-12-20T17:01:51;10.20;99.90
75321;DHT22;63920;52.130;5.584;2022-12-20T17:04:18;10.10;99.90
75321;DHT22;63920;52.130;5.584;2022-12-20T17:06:44;10.20;99.90
75321;DHT22;63920;52.130;5.584;2022-12-20T17:09:11;10.20;99.90
75321;DHT22;63920;52.130;5.584;2022-12-20T17:11:37;10.10;99.90
75321;DHT22;63920;52.130;5.584;2022-12-20T17:14:03;10.10;99.90
75321;DHT22;63920;52.130;5.584;2022-12-20T17:16:29;10.10;99.90
75321;DHT22;63920;52.130;5.584;2022-12-20T17:18:55;10.10;99.90
75321;DHT22;63920;52.130;5.584;2022-12-20T17:21:43;10.10;99.90
75321;DHT22;63920;52.130;5.584;2022-12-20T17:24:18;10.10;99.90
75321;DHT22;63920;52.130;5.584;2022-12-20T17:26:44;10.10;99.90
75321;DHT22;63920;52.130;5.584;2022-12-20T17:29:10;10.10;99.90
75321;DHT22;63920;52.130;5.584;2022-12-20T17:31:40;10.10;99.90
75321;DHT22;63920;52.130;5.584;2022-12-20T17:34:25;10.10;99.90
75321;DHT22;63920;52.130;5.584;2022-12-20T17:36:53;10.10;99.90
75321;DHT22;63920;52.130;5.584;2022-12-20T17:39:19;10.10;99.90
75321;DHT22;63920;52.130;5.584;2022-12-20T17:41:46;10.10;99.90
75321;DHT22;63920;52.130;5.584;2022-12-20T17:44:21;10.10;99.90
75321;DHT22;63920;52.130;5.584;2022-12-20T17:46:47;10.10;99.90
75321;DHT22;63920;52.130;5.584;2022-12-20T17:49:13;10.10;99.90